Time;durP1;ratioP1;P1;durP2;ratioP2;P2;SDS_P1;SDS_P2;PMS_P1;PMS_P2;Temp;Humidity;BMP_temperature;BMP_pressure;BME280_temperature;BME280_humidity;BME280_pressure;Samples;Min_cycle;Max_cycle;Signal;HPM_P1;HPM_P2
2022/03/23 00:04:47;;;;;;;1999.90;999.90;;;;;;;5.87;50.68;102630.78;15545526;28;20033;-57
2022/03/23 00:12:21;;;;;;;1999.90;999.90;;;;;;;5.74;51.16;102626.44;15546788;28;20136;-55
2022/03/23 00:19:53;;;;;;;1999.90;999.90;;;;;;;5.77;50.58;102623.16;15515289;28;20101;-58
2022/03/23 00:27:26;;;;;;;1999.90;999.90;;;;;;;5.70;50.94;102625.25;15513701;28;20046;-60
2022/03/23 00:34:59;;;;;;;1999.90;999.90;;;;;;;5.61;50.56;102624.00;15534661;28;20034;-59
2022/03/23 00:42:35;;;;;;;1999.90;999.90;;;;;;;5.47;51.06;102615.22;15503277;28;20133;-55
2022/03/23 00:50:13;;;;;;;1999.90;999.90;;;;;;;5.36;50.89;102613.38;15530459;28;20049;-55
2022/03/23 00:57:46;;;;;;;1999.90;999.90;;;;;;;5.27;51.33;102600.22;15537358;28;20052;-57
2022/03/23 01:05:19;;;;;;;;;;;;;;;5.23;51.57;102599.88;15523241;28;20045;-56
2022/03/23 01:12:54;;;;;;;1999.90;999.90;;;;;;;5.13;52.71;102595.00;15545501;28;19929;-56
2022/03/23 01:20:26;;;;;;;1999.90;999.90;;;;;;;4.96;53.29;102588.63;15558217;28;20470;-57
2022/03/23 01:28:01;;;;;;;1999.90;999.90;;;;;;;4.90;53.36;102584.94;15559226;28;20062;-54
2022/03/23 01:35:33;;;;;;;1999.90;999.90;;;;;;;4.85;54.08;102589.53;15549007;28;20096;-56
2022/03/23 01:43:09;;;;;;;1999.90;999.90;;;;;;;4.83;53.77;102587.03;15554485;28;20123;-58
2022/03/23 01:50:44;;;;;;;1999.90;999.90;;;;;;;4.72;54.38;102600.91;15528034;28;20055;-56
2022/03/23 01:58:20;;;;;;;1999.90;999.90;;;;;;;4.56;54.85;102585.94;15538184;28;20038;-57
2022/03/23 02:05:52;;;;;;;1999.90;999.90;;;;;;;4.53;55.23;102581.75;15554024;28;20033;-56
2022/03/23 02:13:26;;;;;;;1999.90;999.90;;;;;;;4.53;54.66;102565.16;15552514;28;20103;-56
2022/03/23 02:20:58;;;;;;;1999.90;999.90;;;;;;;4.41;55.21;102571.84;15505050;28;20050;-57
2022/03/23 02:28:34;;;;;;;1999.90;999.90;;;;;;;4.24;55.20;102572.59;15525754;28;20050;-59
2022/03/23 02:36:07;;;;;;;1999.90;999.90;;;;;;;4.23;55.04;102565.41;15541774;28;20440;-56
2022/03/23 02:43:49;;;;;;;1999.90;999.90;;;;;;;4.09;55.22;102565.94;15550115;28;20475;-60
2022/03/23 02:51:22;;;;;;;1999.90;999.90;;;;;;;3.95;55.90;102570.88;15537912;28;20042;-59
2022/03/23 03:06:59;;;;;;;1999.90;999.90;;;;;;;3.85;55.91;102574.25;15509709;28;20080;-59
2022/03/23 03:14:35;;;;;;;1999.90;999.90;;;;;;;3.87;56.20;102555.56;15532622;28;20046;-59
2022/03/23 03:22:09;;;;;;;1999.90;999.90;;;;;;;3.79;56.28;102557.84;15502327;28;20045;-60
2022/03/23 03:29:42;;;;;;;1999.90;999.90;;;;;;;3.69;57.07;102567.59;15541829;28;20069;-60
2022/03/23 03:37:17;;;;;;;1999.90;999.90;;;;;;;3.63;57.09;102559.41;15505413;28;20046;-60
2022/03/23 03:44:51;;;;;;;1999.90;999.90;;;;;;;3.61;56.54;102561.59;15511777;28;20046;-60
2022/03/23 03:52:24;;;;;;;1999.90;999.90;;;;;;;3.41;57.58;102564.72;15518146;28;20514;-60
2022/03/23 04:00:00;;;;;;;1999.90;999.90;;;;;;;3.53;56.79;102567.47;15515565;28;20042;-61
2022/03/23 04:07:33;;;;;;;1999.90;999.90;;;;;;;3.41;57.32;102567.47;15500170;28;20434;-61
2022/03/23 04:15:07;;;;;;;1999.90;999.90;;;;;;;3.38;57.39;102571.56;15516172;28;20112;-60
2022/03/23 04:22:40;;;;;;;1999.90;999.90;;;;;;;3.34;57.27;102570.38;15517474;28;20034;-59
2022/03/23 04:30:14;;;;;;;1999.90;999.90;;;;;;;3.39;57.29;102577.91;15524310;28;20151;-60
2022/03/23 04:37:47;;;;;;;1999.90;999.90;;;;;;;3.16;58.25;102571.31;15564161;28;20057;-60
2022/03/23 04:45:20;;;;;;;1999.90;999.90;;;;;;;3.10;58.50;102582.44;15558853;28;20073;-58
2022/03/23 04:52:52;;;;;;;;;;;;;;;3.08;58.73;102581.84;15559873;28;20165;-59
2022/03/23 05:00:26;;;;;;;1999.90;999.90;;;;;;;2.94;58.97;102580.41;15559956;28;19969;-60
2022/03/23 05:07:58;;;;;;;1999.90;999.90;;;;;;;3.05;58.58;102590.63;15513626;28;20504;-60
2022/03/23 05:15:32;;;;;;;1999.90;999.90;;;;;;;3.13;58.52;102582.84;15546895;28;20046;-58
2022/03/23 05:23:05;;;;;;;1999.90;999.90;;;;;;;2.95;58.64;102584.84;15461172;23;20046;-59
2022/03/23 05:30:38;;;;;;;1999.90;999.90;;;;;;;3.51;57.90;102594.47;15442624;28;20046;-59
2022/03/23 05:38:27;;;;;;;1999.90;999.90;;;;;;;3.74;57.28;102589.78;15441611;28;20051;-58
2022/03/23 05:46:03;;;;;;;1999.90;999.90;;;;;;;4.20;56.65;102588.00;15434130;28;20035;-60
2022/03/23 05:53:36;;;;;;;1999.90;999.90;;;;;;;4.24;56.63;102588.34;15441456;28;20527;-57
2022/03/23 06:01:10;;;;;;;1999.90;999.90;;;;;;;4.07;57.47;102581.94;15443104;28;20069;-58
2022/03/23 06:08:42;;;;;;;1999.90;999.90;;;;;;;4.21;57.56;102584.16;15439863;28;20130;-61
2022/03/23 06:16:15;;;;;;;1999.90;999.90;;;;;;;4.51;57.13;102583.94;15440081;28;20089;-59
2022/03/23 06:23:47;;;;;;;1999.90;999.90;;;;;;;4.92;56.58;102584.69;15440454;28;20043;-58
2022/03/23 06:31:22;;;;;;;1999.90;999.90;;;;;;;5.40;56.21;102602.63;15438795;28;20087;-56
2022/03/23 06:38:57;;;;;;;1999.90;999.90;;;;;;;6.36;53.28;102604.03;15436819;28;20038;-58
2022/03/23 06:46:30;;;;;;;1999.90;999.90;;;;;;;8.48;51.40;102607.91;15434989;28;20142;-59
2022/03/23 06:54:02;;;;;;;1999.90;999.90;;;;;;;10.46;44.91;102618.13;15428725;28;20043;-58
2022/03/23 07:01:36;;;;;;;1999.90;999.90;;;;;;;11.37;43.58;102618.66;15534685;23;20051;-59
2022/03/23 07:17:01;;;;;;;1999.90;999.90;;;;;;;11.07;41.13;102622.50;15415444;28;20039;-62
2022/03/23 07:24:33;;;;;;;1999.90;999.90;;;;;;;12.22;38.95;102616.13;15397090;28;20052;-62
2022/03/23 07:32:08;;;;;;;1999.90;999.90;;;;;;;13.12;38.26;102628.31;15406361;28;20039;-62
2022/03/23 07:39:40;;;;;;;1999.90;999.90;;;;;;;13.04;37.75;102634.63;15380384;28;20438;-60
2022/03/23 07:47:15;;;;;;;1999.90;999.90;;;;;;;12.38;38.19;102627.94;15397671;28;20070;-58
2022/03/23 07:54:47;;;;;;;1999.90;999.90;;;;;;;14.75;34.58;102634.53;15386025;28;20055;-61
2022/03/23 08:02:20;;;;;;;1999.90;999.90;;;;;;;15.78;32.91;102626.13;15393470;28;20416;-60
2022/03/23 08:09:52;;;;;;;;;;;;;;;16.76;32.26;102635.47;15396374;28;20121;-61
2022/03/23 08:17:26;;;;;;;571.40;315.65;;;;;;;18.13;30.29;102628.03;15399260;28;20000;-60
2022/03/23 08:24:59;;;;;;;110.25;101.75;;;;;;;18.50;29.80;102636.84;15399696;28;20483;-61
2022/03/23 08:32:32;;;;;;;181.00;169.10;;;;;;;19.47;26.59;102639.47;15395494;28;20051;-60
2022/03/23 08:40:06;;;;;;;259.42;242.55;;;;;;;19.37;28.43;102648.38;15399678;28;20031;-61
2022/03/23 08:47:39;;;;;;;116.10;107.13;;;;;;;21.01;25.10;102637.88;15393201;28;20054;-61
2022/03/23 08:55:15;;;;;;;132.50;122.65;;;;;;;21.50;25.30;102643.44;15399970;28;20050;-59
2022/03/23 09:02:48;;;;;;;81.55;75.22;;;;;;;21.08;24.11;102645.81;15408635;28;20126;-59
2022/03/23 09:10:21;;;;;;;79.05;72.53;;;;;;;22.07;24.29;102659.22;15345113;28;1051896;-58
2022/03/23 09:18:01;;;;;;;57.83;52.67;;;;;;;22.94;23.26;102655.34;15417658;28;20058;-57
2022/03/23 09:25:33;;;;;;;142.60;133.07;;;;;;;22.43;25.02;102639.06;15389638;28;20074;-58
2022/03/23 09:33:07;;;;;;;43.63;39.57;;;;;;;22.86;21.44;102645.81;15382297;28;20043;-59
2022/03/23 09:40:40;;;;;;;41.20;37.25;;;;;;;23.63;21.76;102644.22;15400872;28;20089;-60
2022/03/23 09:48:16;;;;;;;49.87;44.83;;;;;;;24.85;20.63;102650.88;15395292;28;20051;-60
2022/03/23 09:55:49;;;;;;;42.65;38.63;;;;;;;24.52;21.57;102648.72;15415695;28;21070;-59
2022/03/23 10:04:26;;;;;;;47.72;42.92;;;;;;;25.84;20.20;102637.88;15441800;28;20042;-60
2022/03/23 10:13:05;;;;;;;49.47;43.38;;;;;;;27.41;18.31;102644.81;15413451;28;20134;-56
2022/03/23 10:20:38;;;;;;;147.15;136.82;;;;;;;24.92;21.15;102631.81;15400493;28;20077;-57
2022/03/23 10:28:14;;;;;;;205.57;192.13;;;;;;;26.90;17.73;102631.44;15412890;28;20053;-61
2022/03/23 10:35:48;;;;;;;1583.63;827.92;;;;;;;27.72;16.44;102636.72;15398247;28;20046;-61
2022/03/23 10:43:23;;;;;;;235.00;219.20;;;;;;;26.86;17.60;102627.72;15415844;28;20133;-61
2022/03/23 10:50:58;;;;;;;86.45;79.40;;;;;;;28.87;19.71;102624.06;15394759;28;20098;-61
2022/03/23 10:58:32;;;;;;;1999.90;999.90;;;;;;;27.85;16.24;102618.75;15404238;28;20046;-60
2022/03/23 11:06:07;;;;;;;1999.90;999.90;;;;;;;28.62;16.73;102610.56;15377992;28;20055;-60
2022/03/23 11:21:30;;;;;;;1999.90;999.90;;;;;;;29.59;16.23;102590.94;15384480;28;20043;-61
2022/03/23 11:29:08;;;;;;;1114.60;606.35;;;;;;;27.64;17.53;102583.44;15410102;28;20046;-59
2022/03/23 11:36:48;;;;;;;1999.90;999.90;;;;;;;28.56;17.00;102580.63;15430044;28;20410;-59
2022/03/23 11:44:32;;;;;;;1999.90;999.90;;;;;;;28.34;18.26;102568.34;15414625;28;20443;-61
2022/03/23 11:52:42;;;;;;;1999.90;999.90;;;;;;;28.87;16.21;102560.84;15410213;28;20039;-61
2022/03/23 12:00:17;;;;;;;1999.90;999.90;;;;;;;29.89;15.25;102561.53;15427731;28;20500;-61
2022/03/23 12:07:54;;;;;;;1999.90;999.90;;;;;;;30.65;14.93;102546.06;15423447;28;20047;-61
2022/03/23 12:15:31;;;;;;;1999.90;999.90;;;;;;;31.57;14.39;102546.06;15410455;28;20108;-62
2022/03/23 12:23:30;;;;;;;1999.90;999.90;;;;;;;32.29;12.98;102535.00;15407984;28;20193;-60
2022/03/23 12:31:10;;;;;;;1999.90;999.90;;;;;;;31.99;14.17;102524.38;15383653;28;20039;-60
2022/03/23 12:38:58;;;;;;;1999.90;999.90;;;;;;;32.96;12.82;102520.50;15380044;28;20089;-60
2022/03/23 12:46:43;;;;;;;1999.90;999.90;;;;;;;31.49;14.64;102510.78;15397873;28;20058;-58
2022/03/23 13:02:32;;;;;;;1999.90;999.90;;;;;;;34.19;12.11;102503.47;15372239;28;20518;-60
2022/03/23 13:10:09;;;;;;;1999.90;999.90;;;;;;;35.12;11.62;102501.63;15418732;22;20042;-61
2022/03/23 13:17:43;;;;;;;1999.90;999.90;;;;;;;36.01;11.54;102489.16;15538342;28;20082;-60
2022/03/23 13:25:18;;;;;;;1999.90;999.90;;;;;;;36.48;10.99;102494.94;15502694;28;20034;-62
2022/03/23 13:32:50;;;;;;;1999.90;999.90;;;;;;;35.93;11.49;102494.41;15499048;28;20057;-63
2022/03/23 13:40:26;;;;;;;1999.90;999.90;;;;;;;36.99;10.65;102478.00;15509490;28;20044;-61
2022/03/23 13:47:59;;;;;;;1999.90;999.90;;;;;;;34.28;12.03;102479.63;15509022;28;20127;-59
2022/03/23 13:55:32;;;;;;;1999.90;999.90;;;;;;;27.40;15.85;102465.44;15550529;28;20065;-60
2022/03/23 14:03:05;;;;;;;1999.90;999.90;;;;;;;25.88;17.51;102447.16;15527700;28;20052;-61
2022/03/23 14:10:40;;;;;;;1999.90;999.90;;;;;;;24.73;18.66;102447.19;15541425;28;20053;-61
2022/03/23 14:18:12;;;;;;;1582.45;826.08;;;;;;;24.18;18.54;102429.75;15501257;28;20506;-61
2022/03/23 14:25:45;;;;;;;944.30;592.67;;;;;;;24.40;19.50;102425.19;15539741;28;20050;-61
2022/03/23 14:33:19;;;;;;;347.52;324.48;;;;;;;23.19;19.53;102425.22;15503826;28;20097;-62
2022/03/23 14:40:56;;;;;;;340.70;318.17;;;;;;;23.43;19.16;102407.75;15539373;28;20078;-59
2022/03/23 14:48:35;;;;;;;;;;;;;;;23.85;18.92;102407.66;15553227;28;20062;-60
2022/03/23 14:56:14;;;;;;;190.40;177.52;;;;;;;22.86;21.38;102400.22;15517237;28;20337;-60
2022/03/23 15:03:47;;;;;;;136.85;127.13;;;;;;;22.89;21.38;102405.13;15520573;28;20057;-61
2022/03/23 15:19:12;;;;;;;103.23;94.93;;;;;;;22.66;21.67;102400.19;15527789;28;20050;-60
2022/03/23 15:26:46;;;;;;;68.72;62.15;;;;;;;22.58;21.97;102391.88;15524987;28;20307;-60
2022/03/23 15:34:19;;;;;;;59.72;54.00;;;;;;;22.17;22.48;102397.94;15554513;28;20100;-60
2022/03/23 15:41:53;;;;;;;98.93;91.27;;;;;;;21.97;22.09;102398.25;15518578;28;20038;-61
2022/03/23 15:49:26;;;;;;;59.03;53.50;;;;;;;21.39;22.73;102396.06;15505154;28;20153;-60
2022/03/23 15:57:01;;;;;;;54.40;49.22;;;;;;;21.31;23.19;102388.56;15485621;28;20097;-57
2022/03/23 16:04:33;;;;;;;78.93;72.38;;;;;;;20.62;23.41;102387.03;15493324;28;20050;-60
2022/03/23 16:12:07;;;;;;;52.17;47.00;;;;;;;21.04;23.58;102384.56;15497175;28;20050;-60
2022/03/23 16:19:39;;;;;;;49.40;44.28;;;;;;;20.78;23.52;102385.09;15505237;28;20243;-59
2022/03/23 16:27:15;;;;;;;54.30;48.88;;;;;;;20.26;24.11;102379.50;15516396;28;20510;-58
2022/03/23 16:34:49;;;;;;;65.40;59.25;;;;;;;20.11;24.43;102378.22;15475581;28;20646;-59
2022/03/23 16:42:23;;;;;;;89.15;82.15;;;;;;;19.82;24.85;102380.19;15501878;28;20061;-59
2022/03/23 16:49:56;;;;;;;89.25;82.40;;;;;;;19.30;25.98;102380.88;15490780;28;20053;-59
2022/03/23 16:57:33;;;;;;;97.63;89.78;;;;;;;19.51;26.47;102394.94;15487217;28;20104;-59
2022/03/23 17:13:09;;;;;;;158.90;148.40;;;;;;;18.84;27.69;102404.72;15418446;28;20474;-59
2022/03/23 17:20:41;;;;;;;171.07;159.98;;;;;;;18.51;27.77;102409.50;15494687;28;20264;-60
2022/03/23 17:28:15;;;;;;;176.70;165.23;;;;;;;17.99;27.86;102404.28;15490210;28;20050;-59
2022/03/23 17:35:47;;;;;;;;;;;;;;;17.73;27.56;102416.59;15485486;28;20050;-60
2022/03/23 17:43:20;;;;;;;117.78;109.35;;;;;;;17.28;28.46;102417.09;15486741;28;19922;-59
2022/03/23 17:50:52;;;;;;;;;;;;;;;17.09;27.43;102416.69;15497076;28;20053;-61
2022/03/23 17:58:25;;;;;;;75.53;68.47;;;;;;;16.39;27.71;102430.00;15499425;28;19925;-60
2022/03/23 18:05:57;;;;;;;;;;;;;;;16.47;28.39;102434.00;15500896;28;20074;-57
2022/03/23 18:13:31;;;;;;;62.85;57.10;;;;;;;15.97;29.25;102436.44;15501025;28;20505;-60
2022/03/23 18:21:03;;;;;;;;;;;;;;;16.14;29.26;102442.91;15499968;28;20125;-58
2022/03/23 18:28:41;;;;;;;66.45;59.80;;;;;;;15.57;30.28;102444.91;15513485;28;19921;-61
2022/03/23 18:36:14;;;;;;;1999.90;999.90;;;;;;;15.37;31.18;102440.66;15498344;28;20077;-61
2022/03/23 18:43:49;;;;;;;1999.90;999.90;;;;;;;15.36;32.05;102455.06;15518509;28;20049;-63
2022/03/23 18:51:22;;;;;;;1999.90;999.90;;;;;;;15.24;32.54;102461.28;15506208;28;20313;-60
2022/03/23 18:58:55;;;;;;;1999.90;999.90;;;;;;;14.80;33.25;102463.00;15496410;28;20149;-61
2022/03/23 19:06:38;;;;;;;1999.90;999.90;;;;;;;14.71;33.68;102462.94;15507942;28;20427;-60
2022/03/23 19:14:11;;;;;;;1999.90;999.90;;;;;;;14.10;35.06;102471.94;15495706;28;20452;-60
2022/03/23 19:21:43;;;;;;;;;;;;;;;14.38;34.26;102473.53;15493148;28;20101;-59
2022/03/23 19:29:17;;;;;;;1999.90;999.90;;;;;;;13.84;35.33;102478.09;15496664;28;19925;-56
2022/03/23 19:36:49;;;;;;;1999.90;999.90;;;;;;;13.64;34.91;102486.09;15508596;28;20145;-62
2022/03/23 19:44:22;;;;;;;1999.90;999.90;;;;;;;13.82;34.97;102483.19;15493538;28;20050;-59
2022/03/23 19:51:57;;;;;;;1999.90;999.90;;;;;;;13.58;35.44;102491.00;15495053;28;20467;-60
2022/03/23 19:59:31;;;;;;;1999.90;999.90;;;;;;;12.99;35.02;102492.59;15489799;28;20062;-60
2022/03/23 20:07:04;;;;;;;;;;;;;;;13.13;35.08;102490.69;15494455;28;20042;-61
2022/03/23 20:14:37;;;;;;;1999.90;999.90;;;;;;;12.95;34.85;102499.97;15525372;28;19965;-60
2022/03/23 20:22:10;;;;;;;1999.90;999.90;;;;;;;13.00;34.87;102495.09;15503805;28;20042;-61
2022/03/23 20:29:43;;;;;;;1999.90;999.90;;;;;;;12.65;35.48;102507.72;15520481;28;20042;-62
2022/03/23 20:37:15;;;;;;;1999.90;999.90;;;;;;;12.23;35.90;102510.59;15536467;28;20503;-62
2022/03/23 20:44:49;;;;;;;1999.90;999.90;;;;;;;11.85;36.86;102502.13;15499882;28;20137;-64
2022/03/23 20:52:21;;;;;;;1999.90;999.90;;;;;;;11.87;36.87;102505.44;15496946;28;20042;-62
2022/03/23 20:59:54;;;;;;;1999.90;999.90;;;;;;;11.70;37.44;102513.47;15516307;28;20066;-59
2022/03/23 21:07:27;;;;;;;;;;;;;;;11.79;37.43;102520.94;15526407;28;20054;-61
2022/03/23 21:15:02;;;;;;;1999.90;999.90;;;;;;;11.59;37.97;102514.72;15528705;28;19922;-57
2022/03/23 21:22:34;;;;;;;1999.90;999.90;;;;;;;11.19;38.54;102519.59;15557259;28;20509;-59
2022/03/23 21:30:10;;;;;;;1999.90;999.90;;;;;;;11.24;38.94;102513.94;15505164;28;20046;-58
2022/03/23 21:37:43;;;;;;;1999.90;999.90;;;;;;;11.15;39.53;102513.75;15503725;28;20047;-61
2022/03/23 21:45:16;;;;;;;1999.90;999.90;;;;;;;11.10;39.45;102524.13;15536532;28;20132;-61
2022/03/23 21:52:49;;;;;;;1999.90;999.90;;;;;;;11.04;39.84;102522.50;15523146;28;20048;-60
2022/03/23 22:00:28;;;;;;;1999.90;999.90;;;;;;;11.06;39.91;102520.28;15533781;28;20565;-59
2022/03/23 22:08:00;;;;;;;1999.90;999.90;;;;;;;10.83;40.70;102510.66;15537819;28;20050;-60
2022/03/23 22:15:34;;;;;;;1999.90;999.90;;;;;;;10.54;40.92;102521.78;15520788;28;20049;-60
2022/03/23 22:23:06;;;;;;;1999.90;999.90;;;;;;;10.20;42.28;102518.84;15505449;28;20030;-59
2022/03/23 22:30:40;;;;;;;1999.90;999.90;;;;;;;9.90;43.11;102511.47;15500979;28;20438;-59
2022/03/23 22:38:12;;;;;;;1999.90;999.90;;;;;;;9.62;43.41;102522.16;15502618;28;20054;-60
2022/03/23 22:45:46;;;;;;;1999.90;999.90;;;;;;;9.43;43.93;102523.88;15497697;28;20045;-59
2022/03/23 22:53:19;;;;;;;1999.90;999.90;;;;;;;9.19;44.42;102515.28;15506385;28;20112;-60
2022/03/23 23:01:10;;;;;;;1999.90;999.90;;;;;;;9.03;44.83;102516.41;15499843;28;20038;-60
2022/03/23 23:08:43;;;;;;;1999.90;999.90;;;;;;;8.75;45.25;102515.81;15498425;28;20051;-60
2022/03/23 23:16:17;;;;;;;1999.90;999.90;;;;;;;8.60;45.59;102510.25;15520381;28;20054;-61
2022/03/23 23:23:49;;;;;;;1999.90;999.90;;;;;;;8.38;46.07;102510.50;15502412;28;20050;-59
2022/03/23 23:31:23;;;;;;;1999.90;999.90;;;;;;;8.24;47.13;102512.94;15503640;28;20046;-59
2022/03/23 23:38:55;;;;;;;1999.90;999.90;;;;;;;7.95;47.65;102506.16;15498104;28;20061;-58
2022/03/23 23:46:28;;;;;;;1999.90;999.90;;;;;;;7.80;47.64;102504.13;15510010;28;20046;-60
2022/03/23 23:54:00;;;;;;;1999.90;999.90;;;;;;;7.53;48.80;102496.81;15502098;28;20042;-59
